Time;durP1;ratioP1;P1;durP2;ratioP2;P2;SDS_P1;SDS_P2;PMS_P1;PMS_P2;Temp;Humidity;BMP_temperature;BMP_pressure;BME280_temperature;BME280_humidity;BME280_pressure;Samples;Min_cycle;Max_cycle;Signal;HPM_P1;HPM_P2
2023/09/20 00:02:05;;;;;;;5.30;3.10;;;;;;;7.67;100.00;95777.88;7413667;19;20440;-94
2023/09/20 00:04:47;;;;;;;2.73;2.53;;;;;;;7.74;100.00;95814.19;7415908;19;20384;-94
2023/09/20 00:07:23;;;;;;;7.50;3.20;;;;;;;7.73;100.00;95776.59;7414300;19;20388;-93
2023/09/20 00:10:00;;;;;;;5.20;2.20;;;;;;;7.67;100.00;95788.41;7412327;19;20885;-94
2023/09/20 00:12:44;;;;;;;3.07;2.63;;;;;;;8.79;100.00;95955.34;7410252;19;20403;-94
2023/09/20 00:15:13;;;;;;;2.20;2.00;;;;;;;6.38;100.00;95606.75;7411834;19;20402;-95
2023/09/20 00:17:54;;;;;;;3.63;2.67;;;;;;;7.59;100.00;95779.47;7422320;19;20388;-93
2023/09/20 00:20:25;;;;;;;4.83;2.37;;;;;;;6.92;100.00;95706.72;7432979;19;20403;-94
2023/09/20 00:22:55;;;;;;;8.43;2.63;;;;;;;8.77;100.00;95966.19;7434504;19;20392;-95
2023/09/20 00:25:27;;;;;;;5.00;2.30;;;;;;;8.59;100.00;95955.03;7432072;19;20448;-94
2023/09/20 00:28:19;;;;;;;8.10;2.67;;;;;;;7.27;100.00;95744.13;7432930;19;20384;-95
2023/09/20 00:31:11;;;;;;;2.23;2.03;;;;;;;7.65;100.00;95788.75;7426642;19;20419;-94
2023/09/20 00:33:39;;;;;;;2.10;1.80;;;;;;;8.12;100.00;95845.66;7430168;19;20385;-94
2023/09/20 00:36:31;;;;;;;2.97;1.93;;;;;;;7.16;100.00;95689.59;7428488;19;20428;-93
2023/09/20 00:39:05;;;;;;;3.40;2.10;;;;;;;7.40;100.00;95722.06;7426091;19;20394;-94
2023/09/20 00:42:15;;;;;;;3.33;1.87;;;;;;;7.24;100.00;95694.81;7426683;19;20500;-94
2023/09/20 00:45:06;;;;;;;3.40;2.17;;;;;;;7.90;100.00;95808.06;7426303;19;20481;-94
2023/09/20 00:47:40;;;;;;;4.10;3.40;;;;;;;8.81;100.00;95946.03;7424511;19;20392;-95
2023/09/20 00:50:27;;;;;;;4.53;2.77;;;;;;;7.42;100.00;95753.31;7428422;19;20369;-94
2023/09/20 00:53:12;;;;;;;4.87;3.40;;;;;;;7.41;100.00;95743.88;7424925;19;20381;-94
2023/09/20 00:55:55;;;;;;;6.33;3.10;;;;;;;7.60;100.00;95783.66;7425120;19;20404;-95
2023/09/20 00:58:36;;;;;;;5.40;2.83;;;;;;;8.52;100.00;95954.00;7424746;19;20380;-95
2023/09/20 01:01:17;;;;;;;6.70;3.03;;;;;;;7.43;100.00;95767.22;7424264;19;20405;-94
2023/09/20 01:04:11;;;;;;;3.23;2.93;;;;;;;7.35;100.00;95747.78;7427359;19;20762;-95
2023/09/20 01:06:41;;;;;;;4.87;4.40;;;;;;;8.67;100.00;95942.88;7423055;19;20476;-95
2023/09/20 01:09:22;;;;;;;3.40;2.83;;;;;;;8.75;100.00;95942.03;7422656;19;20392;-96
2023/09/20 01:12:38;;;;;;;3.20;2.90;;;;;;;8.02;100.00;95862.66;7425588;19;20395;-94
2023/09/20 01:15:27;;;;;;;4.70;3.97;;;;;;;5.68;100.00;95566.09;7420759;19;20420;-94
2023/09/20 01:18:12;;;;;;;3.80;3.33;;;;;;;6.95;100.00;95734.25;7422046;19;20440;-94
2023/09/20 01:21:00;;;;;;;3.97;2.57;;;;;;;6.47;100.00;95617.97;7421317;19;20385;-95
2023/09/20 01:23:27;;;;;;;4.63;3.77;;;;;;;8.54;100.00;95928.09;7425632;19;20393;-95
2023/09/20 01:26:11;;;;;;;4.50;3.53;;;;;;;7.54;100.00;95752.59;7424102;19;20424;-95
2023/09/20 01:28:38;;;;;;;7.43;3.80;;;;;;;8.35;100.00;95891.69;7425161;19;20376;-94
2023/09/20 01:31:08;;;;;;;4.90;2.87;;;;;;;7.19;100.00;95716.00;7424559;19;20434;-93
2023/09/20 01:33:52;;;;;;;2.70;2.50;;;;;;;8.44;100.00;95904.81;7426075;19;20390;-95
2023/09/20 01:36:32;;;;;;;5.30;2.97;;;;;;;7.15;100.00;95719.59;7421870;19;20416;-95
2023/09/20 01:39:16;;;;;;;8.83;2.90;;;;;;;8.35;100.00;95919.88;7421192;19;20392;-94
2023/09/20 01:41:47;;;;;;;3.90;2.70;;;;;;;7.05;100.00;95716.25;7432269;19;20385;-94
2023/09/20 01:44:14;;;;;;;2.80;2.07;;;;;;;7.20;100.00;95720.16;7424330;19;20381;-94
2023/09/20 01:46:48;;;;;;;5.93;2.57;;;;;;;6.97;100.00;95654.00;7424577;19;20421;-95
2023/09/20 01:49:36;;;;;;;2.73;2.53;;;;;;;8.76;100.00;95903.28;7422929;19;20388;-94
2023/09/20 01:52:16;;;;;;;2.67;2.40;;;;;;;8.41;100.00;95848.25;7423674;19;20388;-94
2023/09/20 01:54:48;;;;;;;3.40;2.73;;;;;;;8.30;100.00;95831.28;7424803;19;20418;-94
2023/09/20 06:06:38;;;;;;;4.07;3.20;;;;;;;8.78;100.00;95771.94;7397461;19;20422;-92
2023/09/20 06:09:05;;;;;;;3.90;3.57;;;;;;;9.67;100.00;95927.75;7396479;19;20389;-92
2023/09/20 06:11:33;;;;;;;3.40;2.87;;;;;;;8.86;100.00;95792.94;7398399;19;20926;-92
2023/09/20 06:14:00;;;;;;;5.00;2.70;;;;;;;8.18;100.00;95697.72;7399491;19;20450;-91
2023/09/20 06:16:28;;;;;;;3.83;3.07;;;;;;;9.33;100.00;95865.59;7399269;19;20424;-92
2023/09/20 06:18:55;;;;;;;3.50;3.17;;;;;;;8.53;100.00;95731.59;7399164;19;20380;-91
2023/09/20 06:21:32;;;;;;;5.27;3.33;;;;;;;7.90;100.00;95659.91;7399092;19;20388;-92
2023/09/20 06:23:59;;;;;;;4.43;3.43;;;;;;;9.69;100.00;95928.19;7400946;19;20396;-92
2023/09/20 06:26:28;;;;;;;4.27;3.80;;;;;;;7.71;100.00;95649.84;7397568;19;20985;-92
2023/09/20 06:28:56;;;;;;;3.30;3.00;;;;;;;7.89;100.00;95653.13;7399854;19;20914;-91
2023/09/20 06:31:26;;;;;;;4.17;3.77;;;;;;;9.74;100.00;95941.91;7397248;19;20909;-92
2023/09/20 06:34:12;;;;;;;4.27;3.50;;;;;;;7.43;100.00;95598.91;7395516;19;20424;-92
2023/09/20 06:36:47;;;;;;;4.10;3.40;;;;;;;8.17;100.00;95711.97;7398252;19;20409;-92
2023/09/20 06:39:25;;;;;;;4.03;3.33;;;;;;;8.66;100.00;95798.25;7396249;19;20402;-91
2023/09/20 06:42:01;;;;;;;6.90;3.53;;;;;;;7.77;100.00;95640.69;7399194;19;20340;-92
2023/09/20 06:44:44;;;;;;;5.33;3.70;;;;;;;7.94;100.00;95666.81;7396438;19;20384;-92
2023/09/20 06:47:20;;;;;;;3.80;3.50;;;;;;;7.67;100.00;95617.41;7395281;19;20408;-91
2023/09/20 06:49:57;;;;;;;5.40;4.00;;;;;;;8.38;100.00;95682.19;7397697;19;20377;-92
2023/09/20 06:52:34;;;;;;;6.17;4.60;;;;;;;8.25;100.00;95613.66;7398503;19;20356;-92
2023/09/20 06:55:05;;;;;;;7.53;4.10;;;;;;;8.34;100.00;95610.97;7398747;19;20364;-92
2023/09/20 06:57:38;;;;;;;5.20;3.60;;;;;;;8.61;100.00;95620.06;7395689;19;20404;-91
2023/09/20 07:00:44;;;;;;;4.50;3.40;;;;;;;9.03;100.00;95641.66;7394142;19;20379;-92
2023/09/20 07:03:10;;;;;;;3.50;3.30;;;;;;;9.97;100.00;95756.63;7398815;19;20388;-92
2023/09/20 07:05:41;;;;;;;3.27;2.97;;;;;;;11.26;100.00;95967.81;7393769;19;20381;-92
2023/09/20 07:08:14;;;;;;;2.70;2.50;;;;;;;9.09;100.00;95634.31;7395617;19;20765;-92
2023/09/20 07:10:42;;;;;;;5.20;3.50;;;;;;;9.31;100.00;95625.88;7393078;19;20377;-92
2023/09/20 07:13:10;;;;;;;6.50;4.00;;;;;;;9.43;100.00;95640.91;7395559;19;20408;-91
2023/09/20 07:15:39;;;;;;;5.60;3.87;;;;;;;10.90;100.00;95808.16;7397563;19;20385;-92
2023/09/20 07:18:12;;;;;;;4.53;3.37;;;;;;;10.87;100.00;95792.22;7391648;19;20437;-92
2023/09/20 07:20:42;;;;;;;3.70;3.40;;;;;;;10.16;100.00;95698.69;7396241;19;20543;-92
2023/09/20 07:23:13;;;;;;;4.30;3.57;;;;;;;10.74;100.00;95770.38;7395832;19;20397;-92
2023/09/20 07:25:49;;;;;;;3.73;3.43;;;;;;;11.33;100.00;95816.34;7394696;19;20405;-92
2023/09/20 07:28:37;;;;;;;5.73;4.03;;;;;;;11.32;100.00;95748.66;7397859;19;20448;-92
2023/09/20 07:31:49;;;;;;;7.07;3.27;;;;;;;11.00;100.00;95652.72;7396824;19;20448;-92
2023/09/20 07:34:20;;;;;;;6.27;3.90;;;;;;;12.17;100.00;95792.84;7401210;19;20372;-92
2023/09/20 07:37:12;;;;;;;4.33;2.57;;;;;;;11.51;100.00;95666.66;7403837;19;20471;-92
2023/09/20 07:40:00;;;;;;;4.43;2.80;;;;;;;11.78;100.00;95656.97;7411766;19;20384;-92
2023/09/20 07:42:59;;;;;;;4.10;2.47;;;;;;;12.39;100.00;95664.88;7399195;19;20902;-92
2023/09/20 07:46:00;;;;;;;3.57;2.67;;;;;;;12.86;100.00;95698.22;7394916;19;20735;-92
2023/09/20 07:49:21;;;;;;;3.47;3.20;;;;;;;12.69;100.00;95678.25;7397622;19;20376;-92
2023/09/20 07:52:10;;;;;;;2.63;2.43;;;;;;;15.17;100.00;95979.66;7395246;19;20392;-92
2023/09/20 07:55:08;;;;;;;;;;;;;;;;;;;;;
2023/09/20 08:06:09;;;;;;;6.20;2.90;;;;;;;15.78;100.00;95967.72;7398998;19;20410;-91
2023/09/20 08:09:45;;;;;;;;;;;;;;;;;;;;;
2023/09/20 09:00:54;;;;;;;2.47;2.03;;;;;;;16.98;100.00;95942.91;7399094;19;20408;-92
2023/09/20 09:05:16;;;;;;;6.13;2.40;;;;;;;16.99;100.00;95941.78;7395339;19;20388;-92
2023/09/20 09:08:40;;;;;;;5.30;2.43;;;;;;;17.20;100.00;95933.03;7395783;19;20488;-92
2023/09/20 09:12:55;;;;;;;;;;;;;;;;;;;;;
2023/09/20 09:20:33;;;;;;;2.57;2.20;;;;;;;17.58;100.00;95915.53;7394644;19;20471;-93
